NCAR-RAP Real-Time Weather Data

Output produced by METARs form (06 May 2021  15:30 UTC)
found at http://weather.rap.ucar.edu/surface/
 
KAPC 061454Z 28007KT 10SM FEW011 11/08 A3003 RMK AO2 SLP161 T01110078 53008
KAPC 061419Z 30006KT 10SM SCT006 09/07 A3003 RMK AO2 T00940072
KAPC 061354Z 28009KT 10SM BKN006 09/08 A3002 RMK AO2 SLP157 T00940078
KAPC 061325Z AUTO 29010KT 10SM SCT006 09/07 A3002 RMK AO2 T00890072
KAPC 061254Z AUTO 28011KT 10SM OVC006 09/07 A3001 RMK AO2 SLP154 T00890072
KAPC 061154Z AUTO 28008KT 10SM OVC007 09/08 A3001 RMK AO2 SLP153 T00940078 10100 20094 53004
KAPC 061054Z AUTO 26006KT 10SM OVC006 09/08 A2999 RMK AO2 SLP148 T00940078
KAPC 060954Z AUTO 27009KT 10SM OVC007 09/08 A3000 RMK AO2 SLP149 T00940083
KAPC 060854Z AUTO 27008KT 10SM OVC007 10/08 A3000 RMK AO2 SLP149 T01000083 50004
KAPC 060803Z AUTO 27007KT 10SM BKN007 10/08 A3000 RMK AO2 T01000083
KAPC 060754Z AUTO 25008KT 10SM SCT007 09/08 A3000 RMK AO2 SLP149 T00940083 402720078
KAPC 060746Z AUTO 25009KT 10SM SCT007 09/08 A3000 RMK AO2 T00940078
KAPC 060727Z AUTO 27007KT 10SM BKN007 10/08 A3000 RMK AO2 T01000083
KAPC 060654Z AUTO 27009KT 10SM FEW007 10/08 A2999 RMK AO2 SLP148 T01000083
KAPC 060637Z AUTO 26007KT 10SM SCT007 10/08 A2999 RMK AO2 T01000083
KAPC 060554Z AUTO 26010KT 10SM CLR 10/08 A2998 RMK AO2 SLP144 T01000083 10228 20100 51027
KAPC 060454Z AUTO 26008KT 10SM CLR 11/09 A2997 RMK AO2 SLP138 T01060089
KAPC 060354Z AUTO 24014KT 10SM CLR 12/09 A2993 RMK AO2 SLP126 T01170089
KAPC 060254Z AUTO 23010KT 10SM CLR 14/10 A2990 RMK AO2 SLP117 T01390100 53011